Terminal Aerodrome Forecast
Issued by NWS

Home | Current Version | Previous Version | Text Only | Print | Product List | Glossary On
Versions: 1 2 3 4 5 6 7 8 9 10 11 12 13 14
464
FTUS46 KLOX 250907 AAA
TAFPRB
TAF AMD
KPRB 250907Z 2509/2606 29007KT P6SM SKC
     FM251200 VRB05KT 6SM BR OVC004
     FM251700 VRB05KT P6SM SCT006
     FM252000 27008KT P6SM SKC
     FM260300 VRB05KT P6SM SKC=

USA.gov is the U.S. government's official web portal to all federal, state and local government web resources and services.